createdAt,value
2022-08-25T00:00:45.608Z,19.87
2022-08-25T00:03:18.527Z,19.84
2022-08-25T00:05:51.412Z,19.83
2022-08-25T00:08:23.030Z,19.82
2022-08-25T00:10:59.911Z,19.81
2022-08-25T00:13:35.248Z,19.79
2022-08-25T00:16:06.939Z,19.76
2022-08-25T00:18:40.276Z,19.74
2022-08-25T00:21:13.631Z,19.72
2022-08-25T00:23:46.597Z,19.69
2022-08-25T00:26:19.492Z,19.65
2022-08-25T00:28:51.059Z,19.63
2022-08-25T00:31:37.688Z,19.61
2022-08-25T00:34:18.300Z,19.61
2022-08-25T00:36:51.709Z,19.59
2022-08-25T00:39:24.127Z,19.56
2022-08-25T00:41:57.624Z,19.56
2022-08-25T00:44:33.218Z,19.57
2022-08-25T00:47:06.685Z,19.55
2022-08-25T00:50:06.988Z,19.57
2022-08-25T00:52:48.228Z,19.53
2022-08-25T00:55:30.952Z,19.50
2022-08-25T00:58:08.152Z,19.50
2022-08-25T01:00:44.874Z,19.48
2022-08-25T01:03:19.110Z,19.47
2022-08-25T01:05:51.977Z,19.43
2022-08-25T01:08:28.879Z,19.40
2022-08-25T01:11:04.868Z,19.37
2022-08-25T01:13:49.368Z,19.37
2022-08-25T01:16:21.072Z,19.34
2022-08-25T01:18:57.726Z,19.33
2022-08-25T01:21:31.369Z,19.33
2022-08-25T01:24:03.883Z,19.31
2022-08-25T01:26:35.644Z,19.30
2022-08-25T01:29:21.840Z,19.27
2022-08-25T01:31:59.097Z,19.22
2022-08-25T01:34:34.633Z,19.17
2022-08-25T01:37:06.305Z,19.14
2022-08-25T01:39:38.176Z,19.10
2022-08-25T01:42:37.589Z,19.07
2022-08-25T01:45:10.437Z,19.02
2022-08-25T01:47:42.054Z,18.99
2022-08-25T01:50:13.685Z,18.98
2022-08-25T01:52:51.008Z,18.97
2022-08-25T01:55:22.913Z,18.93
2022-08-25T01:57:58.432Z,18.91
2022-08-25T02:00:33.052Z,18.89
2022-08-25T02:03:04.698Z,18.84
2022-08-25T02:05:43.268Z,18.81
2022-08-25T02:08:20.153Z,18.82
2022-08-25T02:10:53.294Z,18.81
2022-08-25T02:13:26.946Z,18.80
2022-08-25T02:16:03.531Z,18.78
2022-08-25T02:18:35.297Z,18.78
2022-08-25T02:21:06.901Z,18.78
2022-08-25T02:23:39.490Z,18.77
2022-08-25T02:26:11.244Z,18.75
2022-08-25T02:28:44.699Z,18.76
2022-08-25T02:31:18.471Z,18.75
2022-08-25T02:33:50.964Z,18.75
2022-08-25T02:36:23.373Z,18.71
2022-08-25T02:38:55.076Z,18.71
2022-08-25T02:41:30.902Z,18.70
2022-08-25T02:44:04.704Z,18.68
2022-08-25T02:46:40.132Z,18.68
2022-08-25T02:49:11.707Z,18.67
2022-08-25T02:51:43.365Z,18.66
2022-08-25T02:54:16.134Z,18.67
2022-08-25T02:56:48.519Z,18.65
2022-08-25T02:59:21.249Z,18.66
2022-08-25T03:01:53.109Z,18.65
2022-08-25T03:04:24.826Z,18.63
2022-08-25T03:07:01.708Z,18.61
2022-08-25T03:09:34.260Z,18.62
2022-08-25T03:12:11.075Z,18.61
2022-08-25T03:14:43.282Z,18.62
2022-08-25T03:17:14.954Z,18.62
2022-08-25T03:19:46.889Z,18.62
2022-08-25T03:22:18.491Z,18.62
2022-08-25T03:24:50.108Z,18.61
2022-08-25T03:27:21.767Z,18.59
2022-08-25T03:29:53.458Z,18.58
2022-08-25T03:32:25.052Z,18.57
2022-08-25T03:34:56.594Z,18.55
2022-08-25T03:37:28.278Z,18.52
2022-08-25T03:40:00.054Z,18.52
2022-08-25T03:42:34.940Z,18.50
2022-08-25T03:45:08.068Z,18.51
2022-08-25T03:47:40.373Z,18.48
2022-08-25T03:50:12.456Z,18.47
2022-08-25T03:52:44.752Z,18.47
2022-08-25T03:55:16.352Z,18.46
2022-08-25T03:57:47.976Z,18.45
2022-08-25T04:00:23.728Z,18.45
2022-08-25T04:02:55.364Z,18.43
2022-08-25T04:05:27.073Z,18.41
2022-08-25T04:08:02.034Z,18.44
2022-08-25T04:10:36.709Z,18.41
2022-08-25T04:13:08.380Z,18.40
2022-08-25T04:15:43.658Z,18.42
2022-08-25T04:18:16.048Z,18.42
2022-08-25T04:20:47.624Z,18.40
2022-08-25T04:23:19.236Z,18.40
2022-08-25T04:25:50.810Z,18.39
2022-08-25T04:28:22.458Z,18.39
2022-08-25T04:30:54.029Z,18.41
2022-08-25T04:33:25.674Z,18.44
2022-08-25T04:35:57.234Z,18.45
2022-08-25T04:38:29.100Z,18.43
2022-08-25T04:41:05.228Z,18.43
2022-08-25T04:43:38.321Z,18.44
2022-08-25T04:46:20.479Z,18.47
2022-08-25T04:48:54.641Z,18.49
2022-08-25T04:51:30.615Z,18.55
2022-08-25T04:54:05.701Z,18.70
2022-08-25T04:56:40.508Z,18.96
2022-08-25T04:59:14.171Z,19.09
2022-08-25T05:01:46.983Z,19.12
2022-08-25T05:04:27.817Z,19.27
2022-08-25T05:06:59.621Z,19.39
2022-08-25T05:09:32.258Z,19.55
2022-08-25T05:12:04.806Z,19.68
2022-08-25T05:14:38.653Z,19.83
2022-08-25T05:17:10.485Z,19.93
2022-08-25T05:19:42.796Z,20.04
2022-08-25T05:22:14.355Z,20.11
2022-08-25T05:24:46.130Z,20.17
2022-08-25T05:27:17.682Z,20.28
2022-08-25T05:29:49.389Z,20.41
2022-08-25T05:32:20.937Z,20.52
2022-08-25T05:34:53.685Z,20.57
2022-08-25T05:37:25.303Z,20.66
2022-08-25T05:39:57.161Z,20.76
2022-08-25T05:42:28.963Z,20.83
2022-08-25T05:45:00.610Z,20.89
2022-08-25T05:47:32.220Z,20.93
2022-08-25T05:50:04.152Z,20.97
2022-08-25T05:52:35.984Z,20.98
2022-08-25T05:55:08.794Z,21.18
2022-08-25T05:57:40.398Z,21.49
2022-08-25T06:00:12.992Z,21.79
2022-08-25T06:02:44.724Z,22.15
2022-08-25T06:05:22.265Z,22.50
2022-08-25T06:07:53.940Z,22.79
2022-08-25T06:10:26.337Z,23.09
2022-08-25T06:12:58.119Z,23.37
2022-08-25T06:15:30.737Z,23.70
2022-08-25T06:18:03.453Z,24.04
2022-08-25T06:20:35.909Z,24.30
2022-08-25T06:23:07.441Z,24.45
2022-08-25T06:25:40.189Z,24.68
2022-08-25T06:28:11.765Z,24.98
2022-08-25T06:30:43.470Z,25.23
2022-08-25T06:33:15.573Z,25.54
2022-08-25T06:35:54.016Z,25.77
2022-08-25T06:38:26.032Z,26.07
2022-08-25T06:40:58.065Z,26.42
2022-08-25T06:43:29.622Z,26.75
2022-08-25T06:46:14.937Z,27.21
2022-08-25T06:48:47.439Z,27.55
2022-08-25T06:51:20.596Z,27.62
2022-08-25T06:53:52.636Z,27.75
2022-08-25T06:56:24.249Z,28.00
2022-08-25T06:58:55.822Z,28.20
2022-08-25T07:01:29.197Z,28.43
2022-08-25T07:04:10.440Z,28.59
2022-08-25T07:06:44.717Z,28.75
2022-08-25T07:09:17.074Z,29.17
2022-08-25T07:11:48.773Z,29.34
2022-08-25T07:14:20.401Z,29.29
2022-08-25T07:16:52.069Z,29.49
2022-08-25T07:19:23.753Z,29.82
2022-08-25T07:21:55.400Z,30.01
2022-08-25T07:24:27.062Z,30.33
2022-08-25T07:27:01.539Z,30.58
2022-08-25T07:29:36.676Z,30.67
2022-08-25T07:32:13.996Z,30.69
2022-08-25T07:35:04.218Z,30.35
2022-08-25T07:37:48.781Z,29.87
2022-08-25T07:40:24.357Z,29.57
2022-08-25T07:42:58.665Z,29.23
2022-08-25T07:45:35.503Z,28.92
2022-08-25T07:48:10.614Z,28.46
2022-08-25T07:50:45.298Z,28.29
2022-08-25T07:53:17.544Z,28.13
2022-08-25T07:55:49.140Z,28.07
2022-08-25T07:58:21.493Z,27.94
2022-08-25T08:00:53.868Z,28.16
2022-08-25T08:03:44.541Z,28.39
2022-08-25T08:06:19.139Z,28.45
2022-08-25T08:08:54.818Z,28.19
2022-08-25T08:11:34.561Z,28.30
2022-08-25T08:14:07.065Z,28.63
2022-08-25T08:16:39.701Z,28.80
2022-08-25T08:19:11.649Z,29.15
2022-08-25T08:21:43.346Z,29.67
2022-08-25T08:24:40.292Z,30.31
2022-08-25T08:27:07.686Z,30.97
2022-08-25T08:29:41.161Z,31.06
2022-08-25T08:32:13.502Z,31.45
2022-08-25T08:34:46.222Z,31.85
2022-08-25T08:37:18.194Z,32.28
2022-08-25T08:39:52.707Z,32.55
2022-08-25T08:42:37.176Z,32.71
2022-08-25T08:45:14.834Z,32.75
2022-08-25T08:48:24.335Z,32.86
2022-08-25T08:51:17.513Z,33.19
2022-08-25T08:54:18.728Z,33.28
2022-08-25T08:57:02.551Z,33.41
2022-08-25T08:59:44.265Z,33.60
2022-08-25T09:02:39.284Z,33.63
2022-08-25T09:05:21.074Z,33.87
2022-08-25T09:08:10.273Z,34.24
2022-08-25T09:10:58.601Z,34.27
2022-08-25T09:13:59.438Z,33.90
2022-08-25T09:16:55.447Z,34.25
2022-08-25T09:20:05.451Z,34.48
2022-08-25T09:23:02.816Z,34.87
2022-08-25T09:25:53.073Z,33.66
2022-08-25T09:28:35.926Z,33.44
2022-08-25T09:31:16.269Z,33.96
2022-08-25T09:33:47.935Z,34.23
2022-08-25T09:36:19.929Z,34.17
2022-08-25T09:38:51.491Z,33.88
2022-08-25T09:41:43.267Z,33.34
2022-08-25T09:44:27.297Z,33.18
2022-08-25T09:47:04.751Z,33.05
2022-08-25T09:49:46.123Z,32.61
2022-08-25T09:52:28.608Z,32.64
2022-08-25T09:55:22.746Z,32.28
2022-08-25T09:57:57.551Z,32.14
2022-08-25T10:00:34.046Z,31.73
2022-08-25T10:03:08.229Z,31.61
2022-08-25T10:05:56.592Z,31.58
2022-08-25T10:08:34.109Z,31.61
2022-08-25T10:11:14.707Z,31.96
2022-08-25T10:13:51.475Z,32.06
2022-08-25T10:16:36.472Z,31.74
2022-08-25T10:19:14.712Z,31.23
2022-08-25T10:22:08.668Z,30.73
2022-08-25T10:24:43.945Z,30.32
2022-08-25T10:27:15.888Z,30.17
2022-08-25T10:30:03.498Z,29.77
2022-08-25T10:33:01.449Z,29.58
2022-08-25T10:35:50.705Z,29.51
2022-08-25T10:38:46.432Z,29.43
2022-08-25T10:41:34.911Z,29.50
2022-08-25T10:44:42.652Z,29.62
2022-08-25T10:47:23.434Z,29.40
2022-08-25T10:50:02.773Z,29.20
2022-08-25T10:52:59.176Z,29.14
2022-08-25T10:55:48.342Z,29.00
2022-08-25T10:58:31.164Z,28.90
2022-08-25T11:01:28.404Z,28.89
2022-08-25T11:04:28.530Z,28.99
2022-08-25T11:07:28.483Z,28.88
2022-08-25T11:10:09.913Z,28.94
2022-08-25T11:12:55.874Z,28.76
2022-08-25T11:15:33.233Z,28.57
2022-08-25T11:18:14.467Z,28.73
2022-08-25T11:20:56.485Z,29.09
2022-08-25T11:23:35.341Z,29.27
2022-08-25T11:26:17.261Z,29.68
2022-08-25T11:29:05.508Z,30.10
2022-08-25T11:31:53.619Z,30.13
2022-08-25T11:34:28.765Z,30.04
2022-08-25T11:37:19.991Z,30.19
2022-08-25T11:40:09.824Z,30.14
2022-08-25T11:42:49.093Z,30.12
2022-08-25T11:45:54.826Z,30.32
2022-08-25T11:48:46.949Z,30.39
2022-08-25T11:51:33.852Z,30.40
2022-08-25T11:54:22.661Z,30.17
2022-08-25T11:57:17.999Z,29.92
2022-08-25T11:59:49.980Z,29.93
2022-08-25T12:02:45.688Z,30.14
2022-08-25T12:05:17.293Z,30.31
2022-08-25T12:08:21.969Z,30.18
2022-08-25T12:11:01.269Z,30.30
2022-08-25T12:13:42.497Z,30.52
2022-08-25T12:16:44.760Z,30.62
2022-08-25T12:19:22.490Z,30.59
2022-08-25T12:22:26.981Z,30.32
2022-08-25T12:25:09.853Z,30.08
2022-08-25T12:28:11.512Z,30.00
2022-08-25T12:30:50.599Z,29.77
2022-08-25T12:33:40.633Z,29.80
2022-08-25T12:36:27.778Z,29.90
2022-08-25T12:39:34.625Z,29.96
2022-08-25T12:42:30.052Z,30.13
2022-08-25T12:45:18.858Z,30.26
2022-08-25T12:47:54.634Z,29.97
2022-08-25T12:50:28.174Z,29.83
2022-08-25T12:53:08.945Z,29.82
2022-08-25T12:55:46.937Z,29.68
2022-08-25T12:58:18.762Z,29.76
2022-08-25T13:01:32.977Z,29.94
2022-08-25T13:04:27.649Z,30.16
2022-08-25T13:07:14.274Z,30.15
2022-08-25T13:10:16.838Z,30.17
2022-08-25T13:13:15.727Z,30.38
2022-08-25T13:15:59.491Z,30.55
2022-08-25T13:18:33.942Z,30.68
2022-08-25T13:21:24.631Z,30.84
2022-08-25T13:24:04.578Z,30.83
2022-08-25T13:26:48.041Z,30.72
2022-08-25T13:29:23.670Z,30.74
2022-08-25T13:31:59.801Z,30.72
2022-08-25T13:34:35.761Z,30.68
2022-08-25T13:37:29.568Z,30.44
2022-08-25T13:40:10.267Z,30.29
2022-08-25T13:42:50.844Z,30.29
2022-08-25T13:45:30.044Z,30.16
2022-08-25T13:48:04.414Z,30.00
2022-08-25T13:50:41.124Z,29.94
2022-08-25T13:53:21.468Z,29.95
2022-08-25T13:55:58.418Z,29.85
2022-08-25T13:58:45.207Z,29.76
2022-08-25T14:01:48.736Z,29.65
2022-08-25T14:04:21.944Z,29.56
2022-08-25T14:07:12.240Z,29.49
2022-08-25T14:09:51.811Z,29.56
2022-08-25T14:12:47.151Z,29.69
2022-08-25T14:15:20.013Z,29.79
2022-08-25T14:18:21.689Z,29.91
2022-08-25T14:21:02.074Z,30.05
2022-08-25T14:23:36.036Z,29.97
2022-08-25T14:26:07.647Z,29.80
2022-08-25T14:28:39.816Z,29.64
2022-08-25T14:31:24.350Z,29.51
2022-08-25T14:34:02.133Z,29.51
2022-08-25T14:36:35.520Z,29.47
2022-08-25T14:39:08.941Z,29.25
2022-08-25T14:41:44.361Z,29.15
2022-08-25T14:44:17.441Z,29.08
2022-08-25T14:46:54.155Z,28.92
2022-08-25T14:49:32.781Z,28.86
2022-08-25T14:52:22.500Z,28.94
2022-08-25T14:54:54.724Z,29.09
2022-08-25T14:57:26.680Z,29.14
2022-08-25T14:59:58.559Z,29.14
2022-08-25T15:02:34.321Z,29.10
2022-08-25T15:05:12.443Z,29.21
2022-08-25T15:08:02.416Z,29.24
2022-08-25T15:10:34.057Z,29.21
2022-08-25T15:13:06.372Z,29.22
2022-08-25T15:15:40.105Z,29.23
2022-08-25T15:18:25.780Z,29.24
2022-08-25T15:20:57.351Z,29.27
2022-08-25T15:23:29.408Z,29.19
2022-08-25T15:26:01.472Z,29.23
2022-08-25T15:28:33.113Z,29.27
2022-08-25T15:31:07.273Z,29.29
2022-08-25T15:33:40.025Z,29.24
2022-08-25T15:36:15.820Z,29.32
2022-08-25T15:38:53.844Z,29.41
2022-08-25T15:41:27.088Z,29.38
2022-08-25T15:44:02.756Z,29.38
2022-08-25T15:46:36.804Z,29.45
2022-08-25T15:49:10.122Z,29.41
2022-08-25T15:51:42.588Z,29.46
2022-08-25T15:54:16.044Z,29.37
2022-08-25T15:56:47.990Z,29.35
2022-08-25T15:59:21.745Z,29.33
2022-08-25T16:01:54.120Z,29.39
2022-08-25T16:04:28.924Z,29.34
2022-08-25T16:07:00.839Z,29.27
2022-08-25T16:09:33.000Z,29.29
2022-08-25T16:12:08.437Z,29.36
2022-08-25T16:14:40.554Z,29.36
2022-08-25T16:17:14.416Z,29.32
2022-08-25T16:19:47.654Z,29.24
2022-08-25T16:22:19.680Z,29.28
2022-08-25T16:24:51.690Z,29.23
2022-08-25T16:27:24.217Z,29.20
2022-08-25T16:29:55.853Z,29.27
2022-08-25T16:32:27.672Z,29.28
2022-08-25T16:34:59.371Z,29.21
2022-08-25T16:37:32.852Z,29.13
2022-08-25T16:40:05.834Z,28.68
2022-08-25T16:42:37.495Z,28.18
2022-08-25T16:45:09.577Z,27.86
2022-08-25T16:47:42.771Z,27.65
2022-08-25T16:50:15.406Z,27.61
2022-08-25T16:53:07.781Z,27.52
2022-08-25T16:55:39.958Z,27.29
2022-08-25T16:58:13.416Z,27.14
2022-08-25T17:00:45.538Z,26.87
2022-08-25T17:03:17.181Z,26.80
2022-08-25T17:05:58.835Z,26.65
2022-08-25T17:08:31.034Z,26.56
2022-08-25T17:11:15.581Z,26.46
2022-08-25T17:13:49.752Z,26.32
2022-08-25T17:16:27.926Z,26.27
2022-08-25T17:19:02.725Z,26.24
2022-08-25T17:21:39.145Z,26.23
2022-08-25T17:24:17.207Z,26.24
2022-08-25T17:26:51.623Z,26.21
2022-08-25T17:29:23.209Z,26.15
2022-08-25T17:31:54.951Z,26.10
2022-08-25T17:34:27.234Z,26.12
2022-08-25T17:36:59.851Z,26.14
2022-08-25T17:39:32.857Z,26.09
2022-08-25T17:42:06.436Z,26.06
2022-08-25T17:44:38.624Z,26.06
2022-08-25T17:47:10.790Z,26.04
2022-08-25T17:49:42.339Z,26.00
2022-08-25T17:52:14.696Z,25.97
2022-08-25T17:54:47.526Z,25.89
2022-08-25T17:57:19.929Z,25.79
2022-08-25T17:59:52.876Z,25.65
2022-08-25T18:02:24.545Z,25.58
2022-08-25T18:05:03.509Z,25.52
2022-08-25T18:07:36.384Z,25.49
2022-08-25T18:10:10.184Z,25.49
2022-08-25T18:12:43.649Z,25.48
2022-08-25T18:15:17.025Z,25.49
2022-08-25T18:17:48.743Z,25.46
2022-08-25T18:20:21.230Z,25.46
2022-08-25T18:22:56.799Z,25.45
2022-08-25T18:25:30.297Z,25.45
2022-08-25T18:28:02.728Z,25.44
2022-08-25T18:30:35.066Z,25.44
2022-08-25T18:33:07.413Z,25.43
2022-08-25T18:35:39.461Z,25.41
2022-08-25T18:38:32.666Z,25.38
2022-08-25T18:41:06.526Z,25.38
2022-08-25T18:43:38.851Z,25.36
2022-08-25T18:46:11.615Z,25.31
2022-08-25T18:48:43.615Z,25.28
2022-08-25T18:51:15.418Z,25.23
2022-08-25T18:53:50.183Z,25.21
2022-08-25T18:56:25.701Z,25.16
2022-08-25T18:58:58.015Z,25.14
2022-08-25T19:01:31.793Z,25.08
2022-08-25T19:04:04.049Z,25.04
2022-08-25T19:06:37.268Z,24.93
2022-08-25T19:09:08.934Z,24.88
2022-08-25T19:11:40.575Z,24.87
2022-08-25T19:14:14.138Z,24.87
2022-08-25T19:16:45.826Z,24.85
2022-08-25T19:19:17.890Z,24.83
2022-08-25T19:21:50.963Z,24.81
2022-08-25T19:24:22.675Z,24.76
2022-08-25T19:26:55.926Z,24.71
2022-08-25T19:29:30.535Z,24.71
2022-08-25T19:32:02.496Z,24.71
2022-08-25T19:34:42.025Z,24.72
2022-08-25T19:37:16.475Z,24.72
2022-08-25T19:39:53.794Z,24.72
2022-08-25T19:42:35.131Z,24.72
2022-08-25T19:45:12.172Z,24.72
2022-08-25T19:47:43.816Z,24.72
2022-08-25T19:50:17.758Z,24.70
2022-08-25T19:52:50.127Z,24.70
2022-08-25T19:55:22.070Z,24.71
2022-08-25T19:57:54.770Z,24.72
2022-08-25T20:00:35.093Z,24.70
2022-08-25T20:03:09.425Z,24.69
2022-08-25T20:05:41.686Z,24.69
2022-08-25T20:08:14.976Z,24.62
2022-08-25T20:10:46.733Z,24.58
2022-08-25T20:13:18.762Z,24.55
2022-08-25T20:15:51.436Z,24.53
2022-08-25T20:18:29.697Z,24.51
2022-08-25T20:21:02.344Z,24.51
2022-08-25T20:23:52.437Z,24.48
2022-08-25T20:26:24.060Z,24.46
2022-08-25T20:28:58.605Z,24.47
2022-08-25T20:31:31.326Z,24.46
2022-08-25T20:34:03.276Z,24.45
2022-08-25T20:36:37.706Z,24.42
2022-08-25T20:39:10.643Z,24.40
2022-08-25T20:41:42.249Z,24.40
2022-08-25T20:44:20.026Z,24.38
2022-08-25T20:46:57.332Z,24.36
2022-08-25T20:49:31.304Z,24.36
2022-08-25T20:52:09.693Z,24.33
2022-08-25T20:54:41.582Z,24.27
2022-08-25T20:57:24.426Z,24.27
2022-08-25T20:59:58.299Z,24.27
2022-08-25T21:02:30.549Z,24.25
2022-08-25T21:05:03.566Z,24.23
2022-08-25T21:07:36.054Z,24.22
2022-08-25T21:10:14.529Z,24.19
2022-08-25T21:12:46.344Z,24.16
2022-08-25T21:15:18.398Z,24.08
2022-08-25T21:17:54.817Z,24.08
2022-08-25T21:20:26.985Z,24.09
2022-08-25T21:22:58.560Z,24.10
2022-08-25T21:25:30.582Z,24.11
2022-08-25T21:28:02.360Z,24.13
2022-08-25T21:30:33.963Z,24.12
2022-08-25T21:33:06.906Z,24.12
2022-08-25T21:35:40.482Z,24.08
2022-08-25T21:38:17.797Z,24.06
2022-08-25T21:40:49.929Z,24.03
2022-08-25T21:43:24.110Z,24.03
2022-08-25T21:45:56.167Z,24.03
2022-08-25T21:48:27.854Z,24.01
2022-08-25T21:51:16.493Z,23.98
2022-08-25T21:53:49.662Z,23.96
2022-08-25T21:56:22.547Z,23.94
2022-08-25T21:58:57.901Z,23.89
2022-08-25T22:01:31.730Z,23.86
2022-08-25T22:04:04.126Z,23.83
2022-08-25T22:06:35.989Z,23.83
2022-08-25T22:09:09.257Z,23.76
2022-08-25T22:11:45.943Z,23.68
2022-08-25T22:14:18.354Z,23.61
2022-08-25T22:16:51.939Z,23.62
2022-08-25T22:19:24.668Z,23.61
2022-08-25T22:21:57.099Z,23.62
2022-08-25T22:24:29.007Z,23.63
2022-08-25T22:27:04.932Z,23.65
2022-08-25T22:29:47.884Z,23.66
2022-08-25T22:32:19.763Z,23.68
2022-08-25T22:34:51.465Z,23.64
2022-08-25T22:37:23.285Z,23.63
2022-08-25T22:39:54.944Z,23.63
2022-08-25T22:42:27.420Z,23.64
2022-08-25T22:44:59.099Z,23.61
2022-08-25T22:47:31.179Z,23.60
2022-08-25T22:50:04.834Z,23.60
2022-08-25T22:52:36.608Z,23.57
2022-08-25T22:55:11.256Z,23.56
2022-08-25T22:57:43.690Z,23.54
2022-08-25T23:00:16.980Z,23.53
2022-08-25T23:02:53.091Z,23.52
2022-08-25T23:05:24.868Z,23.49
2022-08-25T23:07:56.459Z,23.47
2022-08-25T23:10:28.145Z,23.45
2022-08-25T23:13:00.182Z,23.44
2022-08-25T23:15:31.783Z,23.39
2022-08-25T23:18:03.411Z,23.36
2022-08-25T23:20:53.627Z,23.34
2022-08-25T23:23:25.593Z,23.27
2022-08-25T23:25:57.247Z,23.25
2022-08-25T23:28:29.322Z,23.23
2022-08-25T23:31:01.415Z,23.21
2022-08-25T23:33:35.766Z,23.18
2022-08-25T23:36:10.646Z,23.17
2022-08-25T23:38:44.142Z,23.16
2022-08-25T23:41:19.079Z,23.15
2022-08-25T23:43:51.817Z,23.11
2022-08-25T23:46:25.063Z,23.09
2022-08-25T23:48:57.300Z,23.06
2022-08-25T23:51:34.534Z,23.05
2022-08-25T23:54:11.659Z,23.02
2022-08-25T23:56:51.368Z,23.00
2022-08-25T23:59:25.541Z,22.95
